createdAt,value
2023-02-17T00:00:47.312Z,72.74
2023-02-17T00:03:28.764Z,72.65
2023-02-17T00:06:08.469Z,72.76
2023-02-17T00:08:45.783Z,72.73
2023-02-17T00:11:24.182Z,72.80
2023-02-17T00:13:56.297Z,72.68
2023-02-17T00:16:35.214Z,72.88
2023-02-17T00:19:26.601Z,72.57
2023-02-17T00:22:07.742Z,72.42
2023-02-17T00:24:45.684Z,72.33
2023-02-17T00:27:23.694Z,72.44
2023-02-17T00:30:01.863Z,72.48
2023-02-17T00:32:40.561Z,72.54
2023-02-17T00:35:18.655Z,72.44
2023-02-17T00:37:48.816Z,72.30
2023-02-17T00:40:22.403Z,72.36
2023-02-17T00:42:55.380Z,72.22
2023-02-17T00:45:30.217Z,72.28
2023-02-17T00:48:26.221Z,72.16
2023-02-17T00:50:56.492Z,72.25
2023-02-17T00:53:30.386Z,72.18
2023-02-17T00:56:09.209Z,72.01
2023-02-17T00:58:46.788Z,71.90
2023-02-17T01:01:24.707Z,71.96
2023-02-17T01:03:55.951Z,71.93
2023-02-17T01:06:37.897Z,71.84
2023-02-17T01:09:15.937Z,71.67
2023-02-17T01:11:53.480Z,71.72
2023-02-17T01:14:31.216Z,71.73
2023-02-17T01:17:02.856Z,71.85
2023-02-17T01:19:34.375Z,71.82
2023-02-17T01:22:11.645Z,71.58
2023-02-17T01:24:49.432Z,71.58
2023-02-17T01:27:27.495Z,71.28
2023-02-17T01:30:05.467Z,71.55
2023-02-17T01:32:43.263Z,71.63
2023-02-17T01:35:20.793Z,71.63
2023-02-17T01:37:58.013Z,71.60
2023-02-17T01:40:28.957Z,71.23
2023-02-17T01:43:08.045Z,71.32
2023-02-17T01:45:53.356Z,71.38
2023-02-17T01:48:46.145Z,71.39
2023-02-17T01:51:32.515Z,71.20
2023-02-17T01:54:19.954Z,71.20
2023-02-17T01:56:53.158Z,71.30
2023-02-17T01:59:33.048Z,71.28
2023-02-17T02:02:06.112Z,71.24
2023-02-17T02:04:47.371Z,71.11
2023-02-17T02:07:30.259Z,71.31
2023-02-17T02:10:09.464Z,71.33
2023-02-17T02:12:46.861Z,71.35
2023-02-17T02:15:30.506Z,71.32
2023-02-17T02:18:26.860Z,71.45
2023-02-17T02:21:53.514Z,71.39
2023-02-17T02:24:57.382Z,71.26
2023-02-17T02:27:51.094Z,71.06
2023-02-17T02:31:10.642Z,71.10
2023-02-17T02:34:06.535Z,70.94
2023-02-17T02:37:23.847Z,71.15
2023-02-17T02:40:08.428Z,71.19
2023-02-17T02:42:47.316Z,71.47
2023-02-17T02:45:25.947Z,71.55
2023-02-17T02:48:03.556Z,71.54
2023-02-17T02:51:04.964Z,71.61
2023-02-17T02:54:20.826Z,71.58
2023-02-17T02:57:26.656Z,71.62
2023-02-17T03:00:15.038Z,71.91
2023-02-17T03:03:00.394Z,71.71
2023-02-17T03:06:11.848Z,72.02
2023-02-17T03:09:09.131Z,71.90
2023-02-17T03:11:48.689Z,71.69
2023-02-17T03:14:22.207Z,71.72
2023-02-17T03:16:55.986Z,71.84
2023-02-17T03:19:34.140Z,71.99
2023-02-17T03:22:33.176Z,72.15
2023-02-17T03:25:12.694Z,72.44
2023-02-17T03:27:50.869Z,72.42
2023-02-17T03:30:29.298Z,72.50
2023-02-17T03:33:00.897Z,72.87
2023-02-17T03:35:35.148Z,73.03
2023-02-17T03:38:13.706Z,73.13
2023-02-17T03:40:50.944Z,73.17
2023-02-17T03:43:28.761Z,73.29
2023-02-17T03:46:06.369Z,73.47
2023-02-17T03:48:43.690Z,73.43
2023-02-17T03:51:25.718Z,73.67
2023-02-17T03:54:02.957Z,73.90
2023-02-17T03:56:40.400Z,74.10
2023-02-17T03:59:18.011Z,74.54
2023-02-17T04:01:55.527Z,74.63
2023-02-17T04:04:32.668Z,74.92
2023-02-17T04:07:12.829Z,75.19
2023-02-17T04:09:51.282Z,75.20
2023-02-17T04:12:28.817Z,75.18
2023-02-17T04:14:59.402Z,75.35
2023-02-17T04:17:38.449Z,75.35
2023-02-17T04:20:15.835Z,75.37
2023-02-17T04:22:53.294Z,75.63
2023-02-17T04:25:30.962Z,75.48
2023-02-17T04:28:13.057Z,75.38
2023-02-17T04:30:53.928Z,75.58
2023-02-17T04:33:31.637Z,75.30
2023-02-17T04:36:10.201Z,75.50
2023-02-17T04:38:47.448Z,75.55
2023-02-17T04:41:26.457Z,75.57
2023-02-17T04:44:05.229Z,75.56
2023-02-17T04:46:43.106Z,75.53
2023-02-17T04:49:20.911Z,75.59
2023-02-17T04:51:57.867Z,75.85
2023-02-17T04:54:36.030Z,75.84
2023-02-17T04:57:14.688Z,75.71
2023-02-17T04:59:51.546Z,75.98
2023-02-17T05:02:21.901Z,76.05
2023-02-17T05:04:58.002Z,76.36
2023-02-17T05:07:35.825Z,76.37
2023-02-17T05:10:14.270Z,76.52
2023-02-17T05:12:53.165Z,76.49
2023-02-17T05:15:31.266Z,76.71
2023-02-17T05:18:10.591Z,76.74
2023-02-17T05:20:48.058Z,76.91
2023-02-17T05:23:25.947Z,77.13
2023-02-17T05:26:03.250Z,76.95
2023-02-17T05:28:41.135Z,77.19
2023-02-17T05:31:20.868Z,77.81
2023-02-17T05:33:58.422Z,77.60
2023-02-17T05:36:36.624Z,77.87
2023-02-17T05:39:14.372Z,78.21
2023-02-17T05:41:55.326Z,77.64
2023-02-17T05:44:40.929Z,77.61
2023-02-17T05:47:18.432Z,78.13
2023-02-17T05:49:56.392Z,78.32
2023-02-17T05:52:26.844Z,77.79
2023-02-17T05:55:00.261Z,77.74
2023-02-17T05:57:38.646Z,78.05
2023-02-17T06:00:17.497Z,78.06
2023-02-17T06:02:56.776Z,78.10
2023-02-17T06:05:34.642Z,77.82
2023-02-17T06:08:13.425Z,78.01
2023-02-17T06:10:51.092Z,78.14
2023-02-17T06:13:29.129Z,78.18
2023-02-17T06:16:07.611Z,77.48
2023-02-17T06:18:45.919Z,77.40
2023-02-17T06:21:24.056Z,77.52
2023-02-17T06:24:01.495Z,77.53
2023-02-17T06:26:39.930Z,77.38
2023-02-17T06:29:18.095Z,77.27
2023-02-17T06:31:56.535Z,77.15
2023-02-17T06:34:35.092Z,77.09
2023-02-17T06:37:05.632Z,76.90
2023-02-17T06:39:36.587Z,76.87
2023-02-17T06:42:15.065Z,77.23
2023-02-17T06:44:53.455Z,76.78
2023-02-17T06:47:31.898Z,77.01
2023-02-17T06:50:11.865Z,77.04
2023-02-17T06:52:49.773Z,76.67
2023-02-17T06:55:28.422Z,76.41
2023-02-17T06:58:08.919Z,76.53
2023-02-17T07:00:47.135Z,76.45
2023-02-17T07:03:25.296Z,76.25
2023-02-17T07:06:07.047Z,76.36
2023-02-17T07:08:45.500Z,76.18
2023-02-17T07:11:23.780Z,76.07
2023-02-17T07:14:03.299Z,75.85
2023-02-17T07:16:41.891Z,75.66
2023-02-17T07:19:20.694Z,75.61
2023-02-17T07:21:58.480Z,75.56
2023-02-17T07:24:37.430Z,75.23
2023-02-17T07:27:16.216Z,74.97
2023-02-17T07:29:47.462Z,74.34
2023-02-17T07:32:18.807Z,73.97
2023-02-17T07:34:56.968Z,73.90
2023-02-17T07:37:35.049Z,73.80
2023-02-17T07:40:14.517Z,73.69
2023-02-17T07:42:52.373Z,73.69
2023-02-17T07:45:22.592Z,73.38
2023-02-17T07:48:01.179Z,72.95
2023-02-17T07:50:39.858Z,72.82
2023-02-17T07:53:18.390Z,72.41
2023-02-17T07:55:56.277Z,72.00
2023-02-17T07:58:36.519Z,72.05
2023-02-17T08:01:08.873Z,71.99
2023-02-17T08:03:44.751Z,71.91
2023-02-17T08:06:24.209Z,72.03
2023-02-17T08:09:19.952Z,71.53
2023-02-17T08:12:18.692Z,71.59
2023-02-17T08:15:02.181Z,71.49
2023-02-17T08:17:41.327Z,71.30
2023-02-17T08:20:19.762Z,71.35
2023-02-17T08:22:57.348Z,70.96
2023-02-17T08:25:38.874Z,70.72
2023-02-17T08:28:15.605Z,70.54
2023-02-17T08:30:54.427Z,70.49
2023-02-17T08:33:32.357Z,70.23
2023-02-17T08:36:12.440Z,70.54
2023-02-17T08:38:51.722Z,70.26
2023-02-17T08:41:39.776Z,70.07
2023-02-17T08:44:19.530Z,70.17
2023-02-17T08:46:57.351Z,70.00
2023-02-17T08:49:34.041Z,69.73
2023-02-17T08:52:13.518Z,69.54
2023-02-17T08:54:53.158Z,69.05
2023-02-17T08:57:32.835Z,69.10
2023-02-17T09:00:06.707Z,69.22
2023-02-17T09:02:45.522Z,69.21
2023-02-17T09:05:21.067Z,69.39
2023-02-17T09:07:59.648Z,69.25
2023-02-17T09:10:37.893Z,69.18
2023-02-17T09:13:08.365Z,68.42
2023-02-17T09:15:46.600Z,68.68
2023-02-17T09:18:22.508Z,69.04
2023-02-17T09:21:01.472Z,69.23
2023-02-17T09:23:40.181Z,69.43
2023-02-17T09:26:20.152Z,69.55
2023-02-17T09:28:58.365Z,69.67
2023-02-17T09:31:34.712Z,69.79
2023-02-17T09:34:14.113Z,70.06
2023-02-17T09:36:52.388Z,70.57
2023-02-17T09:39:24.310Z,70.21
2023-02-17T09:42:02.336Z,70.37
2023-02-17T09:44:57.347Z,70.91
2023-02-17T09:47:46.748Z,70.75
2023-02-17T09:50:46.652Z,70.96
2023-02-17T09:53:49.460Z,71.09
2023-02-17T09:56:33.740Z,71.70
2023-02-17T09:59:46.936Z,71.62
2023-02-17T10:02:25.852Z,72.14
2023-02-17T10:05:09.498Z,72.35
2023-02-17T10:07:59.759Z,72.42
2023-02-17T10:11:24.336Z,72.72
2023-02-17T10:14:13.554Z,72.79
2023-02-17T10:17:11.128Z,72.78
2023-02-17T10:20:25.068Z,72.76
2023-02-17T10:23:35.921Z,72.88
2023-02-17T10:26:31.033Z,73.40
2023-02-17T10:29:22.470Z,73.77
2023-02-17T10:32:19.503Z,73.73
2023-02-17T10:35:15.909Z,73.23
2023-02-17T10:38:02.948Z,73.76
2023-02-17T10:40:41.067Z,73.63
2023-02-17T10:43:31.251Z,73.67
2023-02-17T10:46:11.414Z,74.41
2023-02-17T10:48:59.951Z,74.16
2023-02-17T10:51:40.358Z,74.29
2023-02-17T10:54:36.847Z,74.51
2023-02-17T10:57:14.654Z,74.33
2023-02-17T10:59:50.091Z,74.42
2023-02-17T11:02:46.741Z,74.22
2023-02-17T11:05:37.538Z,74.27
2023-02-17T11:08:48.502Z,74.01
2023-02-17T11:11:30.737Z,74.19
2023-02-17T11:14:30.889Z,73.71
2023-02-17T11:17:23.388Z,73.97
2023-02-17T11:20:08.629Z,74.30
2023-02-17T11:22:48.338Z,74.40
2023-02-17T11:25:36.257Z,74.59
2023-02-17T11:28:26.668Z,75.08
2023-02-17T11:31:07.760Z,75.30
2023-02-17T11:33:47.121Z,75.42
2023-02-17T11:36:33.262Z,75.80
2023-02-17T11:39:26.873Z,76.09
2023-02-17T11:42:03.846Z,76.34
2023-02-17T11:44:42.785Z,76.31
2023-02-17T11:47:34.147Z,76.36
2023-02-17T11:50:45.842Z,76.38
2023-02-17T11:53:49.772Z,76.58
2023-02-17T11:56:42.147Z,76.42
2023-02-17T11:59:49.270Z,76.61
2023-02-17T12:02:46.099Z,76.40
2023-02-17T12:05:55.420Z,76.62
2023-02-17T12:08:51.633Z,76.51
2023-02-17T12:11:53.436Z,76.80
2023-02-17T12:14:59.621Z,76.70
2023-02-17T12:17:49.993Z,76.76
2023-02-17T12:21:30.377Z,76.47
2023-02-17T12:24:34.690Z,76.44
2023-02-17T12:27:42.788Z,76.55
2023-02-17T12:30:51.231Z,76.36
2023-02-17T12:33:48.469Z,76.53
2023-02-17T12:36:30.920Z,76.46
2023-02-17T12:39:31.012Z,76.02
2023-02-17T12:42:18.814Z,76.34
2023-02-17T12:45:23.553Z,76.41
2023-02-17T12:48:31.582Z,76.60
2023-02-17T12:51:37.608Z,76.59
2023-02-17T12:54:51.910Z,76.68
2023-02-17T12:57:54.035Z,76.91
2023-02-17T13:01:10.182Z,76.59
2023-02-17T13:03:49.042Z,76.73
2023-02-17T13:06:45.532Z,76.91
2023-02-17T13:09:48.320Z,77.21
2023-02-17T13:12:27.782Z,77.27
2023-02-17T13:15:09.029Z,77.70
2023-02-17T13:18:03.579Z,77.73
2023-02-17T13:21:02.135Z,77.78
2023-02-17T13:23:48.563Z,77.89
2023-02-17T13:26:25.899Z,78.07
2023-02-17T13:29:46.172Z,77.69
2023-02-17T13:32:34.182Z,77.68
2023-02-17T13:35:29.162Z,78.07
2023-02-17T13:38:08.885Z,78.43
2023-02-17T13:40:45.453Z,78.99
2023-02-17T13:43:20.631Z,79.10
2023-02-17T13:46:06.698Z,79.28
2023-02-17T13:48:38.972Z,79.64
2023-02-17T13:51:32.594Z,79.77
2023-02-17T13:54:16.733Z,79.75
2023-02-17T13:56:58.259Z,79.79
2023-02-17T13:59:38.562Z,80.39
2023-02-17T14:02:35.906Z,80.92
2023-02-17T14:05:39.141Z,80.98
2023-02-17T14:08:30.666Z,81.07
2023-02-17T14:11:22.789Z,80.89
2023-02-17T14:13:58.293Z,81.20
2023-02-17T14:16:37.765Z,81.37
2023-02-17T14:19:18.978Z,81.02
2023-02-17T14:21:55.683Z,81.28
2023-02-17T14:24:40.066Z,81.20
2023-02-17T14:27:15.210Z,81.42
2023-02-17T14:29:54.269Z,81.65
2023-02-17T14:32:41.314Z,81.43
2023-02-17T14:35:22.638Z,81.64
2023-02-17T14:37:55.273Z,81.60
2023-02-17T14:40:32.208Z,81.54
2023-02-17T14:43:09.920Z,81.73
2023-02-17T14:45:47.777Z,81.63
2023-02-17T14:48:28.010Z,81.70
2023-02-17T14:51:08.380Z,81.47
2023-02-17T14:53:46.505Z,81.52
2023-02-17T14:56:38.173Z,81.38
2023-02-17T14:59:15.512Z,81.37
2023-02-17T15:01:53.710Z,81.57
2023-02-17T15:04:31.903Z,81.52
2023-02-17T15:07:12.289Z,81.83
2023-02-17T15:09:51.424Z,81.41
2023-02-17T15:12:29.370Z,81.71
2023-02-17T15:15:06.945Z,81.58
2023-02-17T15:17:44.920Z,81.90
2023-02-17T15:20:22.218Z,81.45
2023-02-17T15:23:00.631Z,81.79
2023-02-17T15:25:38.432Z,81.86
2023-02-17T15:28:19.894Z,82.11
2023-02-17T15:30:56.899Z,81.65
2023-02-17T15:33:34.222Z,81.96
2023-02-17T15:36:17.900Z,81.97
2023-02-17T15:39:00.429Z,82.01
2023-02-17T15:41:40.439Z,81.91
2023-02-17T15:44:49.192Z,81.70
2023-02-17T15:47:21.563Z,81.91
2023-02-17T15:49:57.866Z,82.05
2023-02-17T15:52:35.245Z,81.78
2023-02-17T15:55:13.167Z,81.92
2023-02-17T15:57:54.851Z,82.19
2023-02-17T16:00:36.878Z,81.96
2023-02-17T16:03:16.275Z,81.96
2023-02-17T16:05:53.898Z,81.84
2023-02-17T16:08:30.521Z,81.98
2023-02-17T16:11:07.300Z,81.93
2023-02-17T16:13:45.464Z,82.13
2023-02-17T16:16:33.178Z,81.94
2023-02-17T16:19:09.098Z,82.07
2023-02-17T16:21:45.897Z,82.10
2023-02-17T16:24:22.281Z,82.18
2023-02-17T16:26:58.657Z,81.78
2023-02-17T16:29:34.922Z,82.10
2023-02-17T16:32:14.492Z,82.31
2023-02-17T16:34:52.510Z,82.32
2023-02-17T16:37:29.666Z,82.31
2023-02-17T16:40:01.129Z,82.29
2023-02-17T16:42:38.322Z,82.57
2023-02-17T16:45:35.565Z,82.48
2023-02-17T16:48:11.311Z,82.51
2023-02-17T16:50:41.641Z,82.39
2023-02-17T16:53:19.149Z,82.59
2023-02-17T16:55:58.113Z,82.30
2023-02-17T16:58:31.003Z,82.32
2023-02-17T17:01:13.128Z,82.49
2023-02-17T17:03:49.621Z,82.51
2023-02-17T17:06:32.146Z,82.72
2023-02-17T17:09:09.772Z,82.59
2023-02-17T17:11:46.684Z,82.67
2023-02-17T17:14:23.053Z,82.48
2023-02-17T17:17:05.249Z,82.54
2023-02-17T17:19:41.825Z,82.40
2023-02-17T17:22:18.937Z,82.70
2023-02-17T17:24:55.871Z,82.55
2023-02-17T17:27:26.985Z,82.63
2023-02-17T17:30:02.448Z,82.70
2023-02-17T17:32:40.319Z,82.68
2023-02-17T17:35:16.970Z,82.73
2023-02-17T17:37:54.322Z,82.79
2023-02-17T17:40:49.471Z,82.69
2023-02-17T17:43:23.978Z,82.71
2023-02-17T17:46:00.848Z,82.60
2023-02-17T17:48:37.643Z,82.77
2023-02-17T17:51:16.989Z,82.61
2023-02-17T17:53:54.959Z,82.52
2023-02-17T17:56:39.687Z,82.73
2023-02-17T17:59:17.929Z,82.65
2023-02-17T18:01:55.448Z,82.56
2023-02-17T18:04:33.704Z,82.64
2023-02-17T18:07:12.625Z,82.56
2023-02-17T18:09:49.107Z,82.44
2023-02-17T18:12:26.026Z,82.48
2023-02-17T18:15:04.768Z,82.42
2023-02-17T18:17:44.079Z,82.39
2023-02-17T18:20:21.936Z,82.30
2023-02-17T18:22:59.566Z,82.20
2023-02-17T18:25:36.768Z,82.33
2023-02-17T18:28:10.701Z,82.59
2023-02-17T18:30:43.814Z,82.43
2023-02-17T18:33:21.117Z,82.56
2023-02-17T18:35:58.914Z,82.63
2023-02-17T18:38:36.849Z,82.58
2023-02-17T18:41:25.674Z,82.50
2023-02-17T18:44:02.797Z,82.59
2023-02-17T18:46:40.779Z,82.75
2023-02-17T18:49:18.900Z,82.75
2023-02-17T18:51:56.056Z,82.63
2023-02-17T18:54:27.318Z,82.87
2023-02-17T18:57:06.193Z,82.88
2023-02-17T18:59:46.414Z,83.16
2023-02-17T19:02:26.784Z,83.11
2023-02-17T19:05:05.052Z,82.97
2023-02-17T19:07:42.470Z,83.16
2023-02-17T19:10:19.430Z,83.16
2023-02-17T19:12:49.558Z,83.01
2023-02-17T19:15:25.411Z,83.25
2023-02-17T19:18:03.192Z,83.51
2023-02-17T19:20:40.853Z,83.77
2023-02-17T19:23:20.360Z,83.68
2023-02-17T19:25:58.734Z,83.87
2023-02-17T19:28:37.240Z,83.99
2023-02-17T19:31:19.115Z,83.97
2023-02-17T19:33:57.543Z,83.80
2023-02-17T19:36:35.082Z,84.06
2023-02-17T19:39:13.079Z,84.20
2023-02-17T19:41:50.564Z,84.52
2023-02-17T19:44:30.627Z,84.42
2023-02-17T19:47:09.277Z,84.58
2023-02-17T19:49:43.817Z,84.76
2023-02-17T19:52:21.465Z,84.58
2023-02-17T19:54:51.596Z,84.64
2023-02-17T19:57:25.786Z,84.61
2023-02-17T20:00:03.161Z,84.56
2023-02-17T20:02:41.119Z,84.30
2023-02-17T20:05:18.829Z,84.12
2023-02-17T20:07:57.652Z,84.04
2023-02-17T20:10:34.821Z,84.01
2023-02-17T20:13:13.876Z,83.97
2023-02-17T20:15:59.260Z,84.00
2023-02-17T20:18:39.300Z,83.65
2023-02-17T20:21:23.147Z,83.63
2023-02-17T20:24:00.767Z,83.31
2023-02-17T20:26:42.579Z,83.34
2023-02-17T20:29:20.386Z,82.94
2023-02-17T20:31:58.297Z,82.83
2023-02-17T20:34:39.147Z,82.90
2023-02-17T20:37:17.313Z,82.97
2023-02-17T20:39:55.084Z,82.63
2023-02-17T20:42:33.163Z,82.32
2023-02-17T20:45:12.039Z,82.48
2023-02-17T20:47:48.148Z,82.13
2023-02-17T20:50:26.373Z,82.00
2023-02-17T20:53:04.904Z,82.03
2023-02-17T20:55:36.679Z,81.91
2023-02-17T20:58:12.655Z,81.53
2023-02-17T21:00:47.592Z,81.47
2023-02-17T21:03:26.028Z,81.71
2023-02-17T21:06:07.198Z,81.23
2023-02-17T21:08:45.723Z,81.36
2023-02-17T21:11:23.485Z,81.15
2023-02-17T21:13:55.107Z,80.97
2023-02-17T21:16:33.618Z,80.57
2023-02-17T21:19:11.801Z,80.85
2023-02-17T21:21:43.077Z,80.81
2023-02-17T21:24:21.740Z,80.69
2023-02-17T21:27:00.796Z,80.90
2023-02-17T21:29:32.451Z,80.82
2023-02-17T21:32:08.863Z,80.46
2023-02-17T21:34:45.987Z,80.45
2023-02-17T21:37:23.379Z,80.40
2023-02-17T21:40:00.368Z,80.03
2023-02-17T21:42:56.456Z,80.47
2023-02-17T21:45:29.740Z,80.00
2023-02-17T21:48:07.816Z,80.40
2023-02-17T21:50:45.154Z,79.93
2023-02-17T21:53:21.560Z,79.53
2023-02-17T21:56:00.038Z,79.56
2023-02-17T21:58:34.111Z,79.23
2023-02-17T22:01:13.216Z,79.15
2023-02-17T22:03:50.941Z,79.61
2023-02-17T22:06:31.265Z,78.84
2023-02-17T22:09:10.320Z,78.62
2023-02-17T22:11:49.016Z,79.10
2023-02-17T22:14:26.609Z,78.38
2023-02-17T22:17:03.459Z,77.22
2023-02-17T22:19:33.796Z,77.88
2023-02-17T22:22:10.512Z,78.16
2023-02-17T22:24:47.320Z,77.84
2023-02-17T22:27:25.218Z,77.15
2023-02-17T22:30:02.121Z,76.89
2023-02-17T22:32:40.611Z,75.90
2023-02-17T22:35:20.457Z,75.66
2023-02-17T22:37:58.868Z,74.37
2023-02-17T22:40:36.633Z,72.71
2023-02-17T22:43:13.743Z,71.52
2023-02-17T22:45:58.310Z,71.58
2023-02-17T22:48:36.067Z,71.31
2023-02-17T22:51:15.669Z,71.35
2023-02-17T22:53:53.859Z,70.89
2023-02-17T22:56:25.348Z,71.21
2023-02-17T22:58:58.954Z,71.56
2023-02-17T23:01:34.644Z,71.56
2023-02-17T23:04:12.999Z,71.62
2023-02-17T23:06:50.783Z,72.18
2023-02-17T23:09:28.308Z,71.30
2023-02-17T23:12:06.244Z,70.83
2023-02-17T23:14:43.538Z,70.31
2023-02-17T23:17:20.893Z,70.08
2023-02-17T23:19:58.185Z,69.81
2023-02-17T23:22:35.305Z,69.86
2023-02-17T23:25:13.881Z,69.70
2023-02-17T23:27:51.141Z,70.31
2023-02-17T23:33:28.773Z,71.12
2023-02-17T23:36:08.988Z,70.45
2023-02-17T23:38:46.764Z,70.39
2023-02-17T23:41:24.856Z,70.86
2023-02-17T23:44:01.686Z,70.05
2023-02-17T23:46:39.976Z,69.63
2023-02-17T23:49:22.640Z,68.66
2023-02-17T23:51:59.592Z,68.48
2023-02-17T23:54:36.539Z,67.85
2023-02-17T23:57:13.615Z,67.04
2023-02-17T23:59:50.972Z,66.35
